sensor_id;sensor_type;location;lat;lon;timestamp;temperature;humidity
39931;DHT22;26635;-35.248;149.138;2022-11-02T00:04:06;13.30;74.10
39931;DHT22;26635;-35.248;149.138;2022-11-02T00:06:37;13.40;73.80
39931;DHT22;26635;-35.248;149.138;2022-11-02T00:09:08;13.50;71.40
39931;DHT22;26635;-35.248;149.138;2022-11-02T00:11:39;13.50;68.90
39931;DHT22;26635;-35.248;149.138;2022-11-02T00:14:09;13.60;69.30
39931;DHT22;26635;-35.248;149.138;2022-11-02T00:16:40;13.60;70.90
39931;DHT22;26635;-35.248;149.138;2022-11-02T00:19:11;13.60;67.90
39931;DHT22;26635;-35.248;149.138;2022-11-02T00:21:48;13.70;71.10
39931;DHT22;26635;-35.248;149.138;2022-11-02T00:24:18;13.80;69.60
39931;DHT22;26635;-35.248;149.138;2022-11-02T00:26:49;13.90;70.00
39931;DHT22;26635;-35.248;149.138;2022-11-02T00:29:19;14.00;69.80
39931;DHT22;26635;-35.248;149.138;2022-11-02T00:31:51;14.00;68.20
39931;DHT22;26635;-35.248;149.138;2022-11-02T00:34:22;14.00;71.10
39931;DHT22;26635;-35.248;149.138;2022-11-02T00:36:53;14.10;69.60
39931;DHT22;26635;-35.248;149.138;2022-11-02T00:39:23;14.10;69.50
39931;DHT22;26635;-35.248;149.138;2022-11-02T00:41:54;14.10;69.70
39931;DHT22;26635;-35.248;149.138;2022-11-02T00:44:25;14.00;68.00
39931;DHT22;26635;-35.248;149.138;2022-11-02T00:46:55;14.20;71.20
39931;DHT22;26635;-35.248;149.138;2022-11-02T00:49:26;14.20;66.50
39931;DHT22;26635;-35.248;149.138;2022-11-02T00:51:57;14.20;70.40
39931;DHT22;26635;-35.248;149.138;2022-11-02T00:54:28;14.20;68.50
39931;DHT22;26635;-35.248;149.138;2022-11-02T00:56:59;14.40;71.50
39931;DHT22;26635;-35.248;149.138;2022-11-02T00:59:31;14.40;69.70
39931;DHT22;26635;-35.248;149.138;2022-11-02T01:02:01;14.50;70.00
39931;DHT22;26635;-35.248;149.138;2022-11-02T01:04:33;14.50;69.30
39931;DHT22;26635;-35.248;149.138;2022-11-02T01:07:04;14.50;68.30
39931;DHT22;26635;-35.248;149.138;2022-11-02T01:09:34;14.50;68.90
39931;DHT22;26635;-35.248;149.138;2022-11-02T01:12:05;14.50;69.40
39931;DHT22;26635;-35.248;149.138;2022-11-02T01:14:36;14.60;68.40
39931;DHT22;26635;-35.248;149.138;2022-11-02T01:17:06;14.70;71.50
39931;DHT22;26635;-35.248;149.138;2022-11-02T01:19:37;14.70;68.40
39931;DHT22;26635;-35.248;149.138;2022-11-02T01:22:08;14.40;68.40
39931;DHT22;26635;-35.248;149.138;2022-11-02T01:24:39;14.20;67.10
39931;DHT22;26635;-35.248;149.138;2022-11-02T01:27:10;14.00;68.90
39931;DHT22;26635;-35.248;149.138;2022-11-02T01:29:41;14.00;71.30
39931;DHT22;26635;-35.248;149.138;2022-11-02T01:32:12;14.20;71.30
39931;DHT22;26635;-35.248;149.138;2022-11-02T01:34:43;14.30;70.50
39931;DHT22;26635;-35.248;149.138;2022-11-02T01:37:14;14.50;71.10
39931;DHT22;26635;-35.248;149.138;2022-11-02T01:39:45;14.60;70.20
39931;DHT22;26635;-35.248;149.138;2022-11-02T01:42:23;14.70;69.90
39931;DHT22;26635;-35.248;149.138;2022-11-02T01:44:54;14.90;69.80
39931;DHT22;26635;-35.248;149.138;2022-11-02T01:47:32;15.00;69.60
39931;DHT22;26635;-35.248;149.138;2022-11-02T01:50:20;15.00;71.00
39931;DHT22;26635;-35.248;149.138;2022-11-02T01:52:51;14.90;69.70
39931;DHT22;26635;-35.248;149.138;2022-11-02T01:55:27;15.00;70.70
39931;DHT22;26635;-35.248;149.138;2022-11-02T01:58:01;15.10;67.50
39931;DHT22;26635;-35.248;149.138;2022-11-02T02:00:34;15.10;69.90
39931;DHT22;26635;-35.248;149.138;2022-11-02T02:03:13;15.10;69.40
39931;DHT22;26635;-35.248;149.138;2022-11-02T02:05:55;15.20;68.90
39931;DHT22;26635;-35.248;149.138;2022-11-02T02:08:26;15.10;67.50
39931;DHT22;26635;-35.248;149.138;2022-11-02T02:10:59;15.10;66.10
39931;DHT22;26635;-35.248;149.138;2022-11-02T02:13:29;14.80;65.10
39931;DHT22;26635;-35.248;149.138;2022-11-02T02:16:14;14.70;66.20
39931;DHT22;26635;-35.248;149.138;2022-11-02T02:18:46;14.80;71.00
39931;DHT22;26635;-35.248;149.138;2022-11-02T02:24:19;14.80;69.20
39931;DHT22;26635;-35.248;149.138;2022-11-02T02:29:55;14.70;69.00
39931;DHT22;26635;-35.248;149.138;2022-11-02T02:32:40;14.60;67.90
39931;DHT22;26635;-35.248;149.138;2022-11-02T02:38:00;14.60;67.90
39931;DHT22;26635;-35.248;149.138;2022-11-02T02:43:56;14.50;65.40
39931;DHT22;26635;-35.248;149.138;2022-11-02T02:46:32;14.50;68.20
39931;DHT22;26635;-35.248;149.138;2022-11-02T02:49:11;14.60;65.20
39931;DHT22;26635;-35.248;149.138;2022-11-02T02:51:45;14.90;69.50
39931;DHT22;26635;-35.248;149.138;2022-11-02T02:54:22;15.00;67.30
39931;DHT22;26635;-35.248;149.138;2022-11-02T02:56:57;15.00;68.40
39931;DHT22;26635;-35.248;149.138;2022-11-02T02:59:33;15.00;67.00
39931;DHT22;26635;-35.248;149.138;2022-11-02T03:02:07;14.90;67.40
39931;DHT22;26635;-35.248;149.138;2022-11-02T03:04:41;14.90;62.80
39931;DHT22;26635;-35.248;149.138;2022-11-02T03:07:16;14.70;66.20
39931;DHT22;26635;-35.248;149.138;2022-11-02T03:10:11;14.80;69.30
39931;DHT22;26635;-35.248;149.138;2022-11-02T03:15:39;14.90;66.80
39931;DHT22;26635;-35.248;149.138;2022-11-02T03:18:46;14.80;66.90
39931;DHT22;26635;-35.248;149.138;2022-11-02T03:21:38;14.60;65.10
39931;DHT22;26635;-35.248;149.138;2022-11-02T03:24:26;14.30;67.90
39931;DHT22;26635;-35.248;149.138;2022-11-02T03:27:21;14.20;66.60
39931;DHT22;26635;-35.248;149.138;2022-11-02T03:30:11;14.10;68.90
39931;DHT22;26635;-35.248;149.138;2022-11-02T03:33:01;14.00;68.70
39931;DHT22;26635;-35.248;149.138;2022-11-02T03:35:42;14.20;68.10
39931;DHT22;26635;-35.248;149.138;2022-11-02T03:38:23;14.20;67.10
39931;DHT22;26635;-35.248;149.138;2022-11-02T03:40:56;14.20;68.30
39931;DHT22;26635;-35.248;149.138;2022-11-02T03:43:27;14.30;67.80
39931;DHT22;26635;-35.248;149.138;2022-11-02T03:46:02;14.20;69.00
39931;DHT22;26635;-35.248;149.138;2022-11-02T03:48:41;14.20;68.20
39931;DHT22;26635;-35.248;149.138;2022-11-02T03:51:17;14.20;67.80
39931;DHT22;26635;-35.248;149.138;2022-11-02T03:56:35;14.20;68.10
39931;DHT22;26635;-35.248;149.138;2022-11-02T03:59:06;14.10;65.00
39931;DHT22;26635;-35.248;149.138;2022-11-02T04:01:45;14.00;63.20
39931;DHT22;26635;-35.248;149.138;2022-11-02T04:04:17;14.00;67.10
39931;DHT22;26635;-35.248;149.138;2022-11-02T04:06:48;14.00;67.90
39931;DHT22;26635;-35.248;149.138;2022-11-02T04:09:20;13.90;66.90
39931;DHT22;26635;-35.248;149.138;2022-11-02T04:11:51;13.70;68.30
39931;DHT22;26635;-35.248;149.138;2022-11-02T04:14:39;13.60;68.50
39931;DHT22;26635;-35.248;149.138;2022-11-02T04:17:10;13.50;70.50
39931;DHT22;26635;-35.248;149.138;2022-11-02T04:19:59;13.40;69.20
39931;DHT22;26635;-35.248;149.138;2022-11-02T04:22:30;13.40;69.90
39931;DHT22;26635;-35.248;149.138;2022-11-02T04:25:19;13.40;68.10
39931;DHT22;26635;-35.248;149.138;2022-11-02T04:27:51;13.50;69.30
39931;DHT22;26635;-35.248;149.138;2022-11-02T04:30:23;13.60;71.20
39931;DHT22;26635;-35.248;149.138;2022-11-02T04:32:53;13.80;68.80
39931;DHT22;26635;-35.248;149.138;2022-11-02T04:35:43;13.80;68.90
39931;DHT22;26635;-35.248;149.138;2022-11-02T04:38:14;13.80;68.40
39931;DHT22;26635;-35.248;149.138;2022-11-02T04:41:14;13.80;69.30
39931;DHT22;26635;-35.248;149.138;2022-11-02T04:44:04;13.80;69.00
39931;DHT22;26635;-35.248;149.138;2022-11-02T04:46:35;13.80;67.20
39931;DHT22;26635;-35.248;149.138;2022-11-02T04:49:07;13.70;67.00
39931;DHT22;26635;-35.248;149.138;2022-11-02T04:51:37;13.60;65.90
39931;DHT22;26635;-35.248;149.138;2022-11-02T04:54:16;13.60;68.30
39931;DHT22;26635;-35.248;149.138;2022-11-02T04:56:47;13.50;66.40
39931;DHT22;26635;-35.248;149.138;2022-11-02T04:59:17;13.40;67.50
39931;DHT22;26635;-35.248;149.138;2022-11-02T05:01:48;13.30;68.60
39931;DHT22;26635;-35.248;149.138;2022-11-02T05:04:19;13.20;68.70
39931;DHT22;26635;-35.248;149.138;2022-11-02T05:06:49;13.20;69.90
39931;DHT22;26635;-35.248;149.138;2022-11-02T05:09:22;13.20;69.60
39931;DHT22;26635;-35.248;149.138;2022-11-02T05:11:52;13.10;70.20
39931;DHT22;26635;-35.248;149.138;2022-11-02T05:14:22;13.10;70.10
39931;DHT22;26635;-35.248;149.138;2022-11-02T05:16:52;13.10;68.70
39931;DHT22;26635;-35.248;149.138;2022-11-02T05:19:23;13.00;67.00
39931;DHT22;26635;-35.248;149.138;2022-11-02T05:21:53;12.90;69.80
39931;DHT22;26635;-35.248;149.138;2022-11-02T05:24:23;12.90;71.70
39931;DHT22;26635;-35.248;149.138;2022-11-02T05:26:54;12.90;69.90
39931;DHT22;26635;-35.248;149.138;2022-11-02T05:29:24;12.80;64.90
39931;DHT22;26635;-35.248;149.138;2022-11-02T05:31:56;12.70;67.80
39931;DHT22;26635;-35.248;149.138;2022-11-02T05:34:27;12.60;68.10
39931;DHT22;26635;-35.248;149.138;2022-11-02T05:36:57;12.50;68.50
39931;DHT22;26635;-35.248;149.138;2022-11-02T05:39:27;12.50;68.90
39931;DHT22;26635;-35.248;149.138;2022-11-02T05:41:58;12.50;68.20
39931;DHT22;26635;-35.248;149.138;2022-11-02T05:44:28;12.50;68.10
39931;DHT22;26635;-35.248;149.138;2022-11-02T05:46:58;12.60;69.80
39931;DHT22;26635;-35.248;149.138;2022-11-02T05:49:29;12.60;69.50
39931;DHT22;26635;-35.248;149.138;2022-11-02T05:51:59;12.70;69.30
39931;DHT22;26635;-35.248;149.138;2022-11-02T05:54:30;12.70;68.70
39931;DHT22;26635;-35.248;149.138;2022-11-02T05:57:00;12.70;67.70
39931;DHT22;26635;-35.248;149.138;2022-11-02T05:59:30;12.70;67.10
39931;DHT22;26635;-35.248;149.138;2022-11-02T06:02:01;12.70;67.50
39931;DHT22;26635;-35.248;149.138;2022-11-02T06:04:32;12.70;68.70
39931;DHT22;26635;-35.248;149.138;2022-11-02T06:07:02;12.70;67.80
39931;DHT22;26635;-35.248;149.138;2022-11-02T06:09:33;12.80;64.60
39931;DHT22;26635;-35.248;149.138;2022-11-02T06:12:04;12.90;67.30
39931;DHT22;26635;-35.248;149.138;2022-11-02T06:14:36;12.90;66.30
39931;DHT22;26635;-35.248;149.138;2022-11-02T06:17:06;12.90;66.10
39931;DHT22;26635;-35.248;149.138;2022-11-02T06:19:37;12.90;66.30
39931;DHT22;26635;-35.248;149.138;2022-11-02T06:22:08;12.80;65.90
39931;DHT22;26635;-35.248;149.138;2022-11-02T06:24:38;12.90;66.20
39931;DHT22;26635;-35.248;149.138;2022-11-02T06:27:09;12.80;66.90
39931;DHT22;26635;-35.248;149.138;2022-11-02T06:29:39;12.80;66.70
39931;DHT22;26635;-35.248;149.138;2022-11-02T06:32:10;12.80;68.30
39931;DHT22;26635;-35.248;149.138;2022-11-02T06:34:40;12.70;65.50
39931;DHT22;26635;-35.248;149.138;2022-11-02T06:37:11;12.60;67.40
39931;DHT22;26635;-35.248;149.138;2022-11-02T06:39:42;12.50;67.20
39931;DHT22;26635;-35.248;149.138;2022-11-02T06:42:15;12.50;68.90
39931;DHT22;26635;-35.248;149.138;2022-11-02T06:44:47;12.40;68.40
39931;DHT22;26635;-35.248;149.138;2022-11-02T06:47:17;12.40;69.70
39931;DHT22;26635;-35.248;149.138;2022-11-02T06:49:48;12.40;70.10
39931;DHT22;26635;-35.248;149.138;2022-11-02T06:52:18;12.30;67.30
39931;DHT22;26635;-35.248;149.138;2022-11-02T06:54:48;12.30;70.90
39931;DHT22;26635;-35.248;149.138;2022-11-02T06:57:19;12.40;69.20
39931;DHT22;26635;-35.248;149.138;2022-11-02T06:59:50;12.40;67.20
39931;DHT22;26635;-35.248;149.138;2022-11-02T07:02:21;12.50;69.80
39931;DHT22;26635;-35.248;149.138;2022-11-02T07:04:52;12.50;71.10
39931;DHT22;26635;-35.248;149.138;2022-11-02T07:07:26;12.60;70.10
39931;DHT22;26635;-35.248;149.138;2022-11-02T07:09:56;12.60;69.30
39931;DHT22;26635;-35.248;149.138;2022-11-02T07:12:27;12.60;71.10
39931;DHT22;26635;-35.248;149.138;2022-11-02T07:14:58;12.50;70.70
39931;DHT22;26635;-35.248;149.138;2022-11-02T07:17:28;12.50;69.40
39931;DHT22;26635;-35.248;149.138;2022-11-02T07:19:59;12.40;70.70
39931;DHT22;26635;-35.248;149.138;2022-11-02T07:22:30;12.40;68.80
39931;DHT22;26635;-35.248;149.138;2022-11-02T07:25:03;12.30;68.20
39931;DHT22;26635;-35.248;149.138;2022-11-02T07:27:40;12.30;71.80
39931;DHT22;26635;-35.248;149.138;2022-11-02T07:30:11;12.20;72.40
39931;DHT22;26635;-35.248;149.138;2022-11-02T07:32:42;12.20;70.20
39931;DHT22;26635;-35.248;149.138;2022-11-02T07:35:14;12.10;71.00
39931;DHT22;26635;-35.248;149.138;2022-11-02T07:37:58;12.10;72.80
39931;DHT22;26635;-35.248;149.138;2022-11-02T07:40:32;12.10;73.30
39931;DHT22;26635;-35.248;149.138;2022-11-02T07:43:03;12.10;72.10
39931;DHT22;26635;-35.248;149.138;2022-11-02T07:45:34;12.10;73.50
39931;DHT22;26635;-35.248;149.138;2022-11-02T07:48:04;12.00;72.60
39931;DHT22;26635;-35.248;149.138;2022-11-02T07:50:35;12.00;74.10
39931;DHT22;26635;-35.248;149.138;2022-11-02T07:53:06;11.90;73.30
39931;DHT22;26635;-35.248;149.138;2022-11-02T07:55:36;11.80;75.80
39931;DHT22;26635;-35.248;149.138;2022-11-02T07:58:09;11.80;75.10
39931;DHT22;26635;-35.248;149.138;2022-11-02T08:00:42;11.70;75.60
39931;DHT22;26635;-35.248;149.138;2022-11-02T08:03:12;11.60;74.90
39931;DHT22;26635;-35.248;149.138;2022-11-02T08:05:43;11.60;75.30
39931;DHT22;26635;-35.248;149.138;2022-11-02T08:08:15;11.60;73.00
39931;DHT22;26635;-35.248;149.138;2022-11-02T08:10:54;11.50;76.00
39931;DHT22;26635;-35.248;149.138;2022-11-02T08:13:24;11.50;76.30
39931;DHT22;26635;-35.248;149.138;2022-11-02T08:15:59;11.40;78.00
39931;DHT22;26635;-35.248;149.138;2022-11-02T08:18:30;11.40;76.90
39931;DHT22;26635;-35.248;149.138;2022-11-02T08:21:01;11.50;77.30
39931;DHT22;26635;-35.248;149.138;2022-11-02T08:23:33;11.40;77.60
39931;DHT22;26635;-35.248;149.138;2022-11-02T08:26:04;11.40;75.30
39931;DHT22;26635;-35.248;149.138;2022-11-02T08:28:35;11.30;76.50
39931;DHT22;26635;-35.248;149.138;2022-11-02T08:31:16;11.30;78.00
39931;DHT22;26635;-35.248;149.138;2022-11-02T08:33:46;11.30;75.80
39931;DHT22;26635;-35.248;149.138;2022-11-02T08:36:16;11.30;77.90
39931;DHT22;26635;-35.248;149.138;2022-11-02T08:38:47;11.20;77.90
39931;DHT22;26635;-35.248;149.138;2022-11-02T08:41:17;11.20;77.30
39931;DHT22;26635;-35.248;149.138;2022-11-02T08:43:47;11.10;78.40
39931;DHT22;26635;-35.248;149.138;2022-11-02T08:46:19;11.10;79.20
39931;DHT22;26635;-35.248;149.138;2022-11-02T08:48:50;11.00;79.30
39931;DHT22;26635;-35.248;149.138;2022-11-02T08:51:24;11.10;78.70
39931;DHT22;26635;-35.248;149.138;2022-11-02T08:53:54;11.00;79.80
39931;DHT22;26635;-35.248;149.138;2022-11-02T08:56:25;10.90;80.20
39931;DHT22;26635;-35.248;149.138;2022-11-02T08:58:56;10.90;79.90
39931;DHT22;26635;-35.248;149.138;2022-11-02T09:01:26;10.90;80.20
39931;DHT22;26635;-35.248;149.138;2022-11-02T09:03:56;10.80;80.80
39931;DHT22;26635;-35.248;149.138;2022-11-02T09:06:27;10.80;81.40
39931;DHT22;26635;-35.248;149.138;2022-11-02T09:08:58;10.80;80.10
39931;DHT22;26635;-35.248;149.138;2022-11-02T09:11:29;10.80;79.00
39931;DHT22;26635;-35.248;149.138;2022-11-02T09:13:59;10.80;80.40
39931;DHT22;26635;-35.248;149.138;2022-11-02T09:16:30;10.80;80.50
39931;DHT22;26635;-35.248;149.138;2022-11-02T09:19:06;10.80;80.40
39931;DHT22;26635;-35.248;149.138;2022-11-02T09:21:37;10.70;81.20
39931;DHT22;26635;-35.248;149.138;2022-11-02T09:24:07;10.70;81.00
39931;DHT22;26635;-35.248;149.138;2022-11-02T09:26:38;10.60;81.10
39931;DHT22;26635;-35.248;149.138;2022-11-02T09:29:08;10.60;81.80
39931;DHT22;26635;-35.248;149.138;2022-11-02T09:31:39;10.50;82.40
39931;DHT22;26635;-35.248;149.138;2022-11-02T09:34:10;10.50;81.70
39931;DHT22;26635;-35.248;149.138;2022-11-02T09:36:41;10.50;82.90
39931;DHT22;26635;-35.248;149.138;2022-11-02T09:39:11;10.50;82.60
39931;DHT22;26635;-35.248;149.138;2022-11-02T09:41:47;10.50;81.80
39931;DHT22;26635;-35.248;149.138;2022-11-02T09:44:29;10.50;82.60
39931;DHT22;26635;-35.248;149.138;2022-11-02T09:47:09;10.50;81.30
39931;DHT22;26635;-35.248;149.138;2022-11-02T09:50:01;10.40;82.60
39931;DHT22;26635;-35.248;149.138;2022-11-02T09:52:37;10.40;82.30
39931;DHT22;26635;-35.248;149.138;2022-11-02T09:55:14;10.40;80.70
39931;DHT22;26635;-35.248;149.138;2022-11-02T09:57:50;10.40;81.40
39931;DHT22;26635;-35.248;149.138;2022-11-02T10:00:23;10.30;80.40
39931;DHT22;26635;-35.248;149.138;2022-11-02T10:06:11;10.20;82.00
39931;DHT22;26635;-35.248;149.138;2022-11-02T10:14:32;10.20;82.30
39931;DHT22;26635;-35.248;149.138;2022-11-02T10:17:10;10.10;82.10
39931;DHT22;26635;-35.248;149.138;2022-11-02T10:19:43;10.10;81.80
39931;DHT22;26635;-35.248;149.138;2022-11-02T10:22:16;10.10;83.00
39931;DHT22;26635;-35.248;149.138;2022-11-02T10:24:47;10.10;82.80
39931;DHT22;26635;-35.248;149.138;2022-11-02T10:27:31;10.10;82.20
39931;DHT22;26635;-35.248;149.138;2022-11-02T10:32:39;10.10;81.90
39931;DHT22;26635;-35.248;149.138;2022-11-02T10:35:33;10.00;82.10
39931;DHT22;26635;-35.248;149.138;2022-11-02T10:44:32;10.00;81.70
39931;DHT22;26635;-35.248;149.138;2022-11-02T10:47:37;10.10;81.60
39931;DHT22;26635;-35.248;149.138;2022-11-02T10:52:51;10.20;81.40
39931;DHT22;26635;-35.248;149.138;2022-11-02T10:58:22;10.20;82.10
39931;DHT22;26635;-35.248;149.138;2022-11-02T11:01:11;10.20;83.80
39931;DHT22;26635;-35.248;149.138;2022-11-02T11:03:56;10.10;84.20
39931;DHT22;26635;-35.248;149.138;2022-11-02T11:09:16;10.10;84.20
39931;DHT22;26635;-35.248;149.138;2022-11-02T11:11:59;10.20;83.40
39931;DHT22;26635;-35.248;149.138;2022-11-02T11:14:46;10.30;83.30
39931;DHT22;26635;-35.248;149.138;2022-11-02T11:17:38;10.30;83.40
39931;DHT22;26635;-35.248;149.138;2022-11-02T11:26:03;10.20;84.80
39931;DHT22;26635;-35.248;149.138;2022-11-02T11:31:17;10.20;84.50
39931;DHT22;26635;-35.248;149.138;2022-11-02T11:33:56;10.20;84.80
39931;DHT22;26635;-35.248;149.138;2022-11-02T11:36:31;10.20;85.10
39931;DHT22;26635;-35.248;149.138;2022-11-02T11:39:20;10.20;84.80
39931;DHT22;26635;-35.248;149.138;2022-11-02T11:41:52;10.30;84.90
39931;DHT22;26635;-35.248;149.138;2022-11-02T11:44:23;10.20;86.00
39931;DHT22;26635;-35.248;149.138;2022-11-02T11:46:56;10.20;84.80
39931;DHT22;26635;-35.248;149.138;2022-11-02T11:49:32;10.20;85.50
39931;DHT22;26635;-35.248;149.138;2022-11-02T11:52:30;10.20;85.60
39931;DHT22;26635;-35.248;149.138;2022-11-02T11:55:01;10.20;85.60
39931;DHT22;26635;-35.248;149.138;2022-11-02T11:58:45;10.20;84.50
39931;DHT22;26635;-35.248;149.138;2022-11-02T12:06:36;10.20;83.70
39931;DHT22;26635;-35.248;149.138;2022-11-02T12:12:15;10.20;86.50
39931;DHT22;26635;-35.248;149.138;2022-11-02T12:20:30;10.20;84.70
39931;DHT22;26635;-35.248;149.138;2022-11-02T12:28:45;10.10;86.40
39931;DHT22;26635;-35.248;149.138;2022-11-02T12:34:27;9.90;86.70
39931;DHT22;26635;-35.248;149.138;2022-11-02T12:37:10;9.90;87.10
39931;DHT22;26635;-35.248;149.138;2022-11-02T12:45:51;9.70;88.70
39931;DHT22;26635;-35.248;149.138;2022-11-02T12:48:56;9.70;88.60
39931;DHT22;26635;-35.248;149.138;2022-11-02T12:51:44;9.60;89.20
39931;DHT22;26635;-35.248;149.138;2022-11-02T12:54:20;9.70;88.70
39931;DHT22;26635;-35.248;149.138;2022-11-02T12:56:53;9.70;88.90
39931;DHT22;26635;-35.248;149.138;2022-11-02T12:59:29;9.70;89.30
39931;DHT22;26635;-35.248;149.138;2022-11-02T13:02:11;9.70;88.80
39931;DHT22;26635;-35.248;149.138;2022-11-02T13:08:09;9.70;89.80
39931;DHT22;26635;-35.248;149.138;2022-11-02T13:10:23;9.70;90.10
39931;DHT22;26635;-35.248;149.138;2022-11-02T13:12:58;9.70;89.60
39931;DHT22;26635;-35.248;149.138;2022-11-02T13:15:33;9.70;89.60
39931;DHT22;26635;-35.248;149.138;2022-11-02T13:18:23;9.70;89.40
39931;DHT22;26635;-35.248;149.138;2022-11-02T13:21:01;9.70;88.60
39931;DHT22;26635;-35.248;149.138;2022-11-02T13:23:43;9.80;87.60
39931;DHT22;26635;-35.248;149.138;2022-11-02T13:26:37;9.80;89.00
39931;DHT22;26635;-35.248;149.138;2022-11-02T13:31:57;9.90;88.40
39931;DHT22;26635;-35.248;149.138;2022-11-02T13:34:42;10.00;88.80
39931;DHT22;26635;-35.248;149.138;2022-11-02T13:37:26;10.00;87.60
39931;DHT22;26635;-35.248;149.138;2022-11-02T13:40:01;10.00;88.20
39931;DHT22;26635;-35.248;149.138;2022-11-02T13:45:43;10.10;87.70
39931;DHT22;26635;-35.248;149.138;2022-11-02T13:48:30;10.00;87.70
39931;DHT22;26635;-35.248;149.138;2022-11-02T13:54:11;10.00;88.50
39931;DHT22;26635;-35.248;149.138;2022-11-02T13:56:51;10.00;88.50
39931;DHT22;26635;-35.248;149.138;2022-11-02T13:59:32;9.90;87.70
39931;DHT22;26635;-35.248;149.138;2022-11-02T14:02:14;9.90;88.20
39931;DHT22;26635;-35.248;149.138;2022-11-02T14:04:56;9.90;89.30
39931;DHT22;26635;-35.248;149.138;2022-11-02T14:07:38;9.80;89.00
39931;DHT22;26635;-35.248;149.138;2022-11-02T14:10:16;9.80;88.50
39931;DHT22;26635;-35.248;149.138;2022-11-02T14:12:57;9.80;88.90
39931;DHT22;26635;-35.248;149.138;2022-11-02T14:18:13;9.80;88.70
39931;DHT22;26635;-35.248;149.138;2022-11-02T14:20:48;9.80;88.40
39931;DHT22;26635;-35.248;149.138;2022-11-02T14:25:56;9.70;87.50
39931;DHT22;26635;-35.248;149.138;2022-11-02T14:28:32;9.70;90.20
39931;DHT22;26635;-35.248;149.138;2022-11-02T14:37:08;9.70;89.70
39931;DHT22;26635;-35.248;149.138;2022-11-02T14:40:23;9.70;90.00
39931;DHT22;26635;-35.248;149.138;2022-11-02T14:48:16;9.80;90.00
39931;DHT22;26635;-35.248;149.138;2022-11-02T14:51:10;9.70;89.50
39931;DHT22;26635;-35.248;149.138;2022-11-02T14:53:42;9.80;89.70
39931;DHT22;26635;-35.248;149.138;2022-11-02T14:56:18;9.80;89.00
39931;DHT22;26635;-35.248;149.138;2022-11-02T14:58:55;9.80;90.30
39931;DHT22;26635;-35.248;149.138;2022-11-02T15:01:28;9.80;90.30
39931;DHT22;26635;-35.248;149.138;2022-11-02T15:04:06;9.80;89.70
39931;DHT22;26635;-35.248;149.138;2022-11-02T15:06:56;9.80;90.10
39931;DHT22;26635;-35.248;149.138;2022-11-02T15:10:03;9.80;90.10
39931;DHT22;26635;-35.248;149.138;2022-11-02T15:12:39;9.80;90.20
39931;DHT22;26635;-35.248;149.138;2022-11-02T15:15:35;9.70;90.50
39931;DHT22;26635;-35.248;149.138;2022-11-02T15:18:33;9.70;90.40
39931;DHT22;26635;-35.248;149.138;2022-11-02T15:24:10;9.60;91.00
39931;DHT22;26635;-35.248;149.138;2022-11-02T15:26:58;9.60;91.10
39931;DHT22;26635;-35.248;149.138;2022-11-02T15:29:42;9.60;91.50
39931;DHT22;26635;-35.248;149.138;2022-11-02T15:32:19;9.60;90.60
39931;DHT22;26635;-35.248;149.138;2022-11-02T15:34:53;9.60;90.90
39931;DHT22;26635;-35.248;149.138;2022-11-02T15:37:33;9.60;90.60
39931;DHT22;26635;-35.248;149.138;2022-11-02T15:40:47;9.60;90.60
39931;DHT22;26635;-35.248;149.138;2022-11-02T15:49:22;9.60;90.80
39931;DHT22;26635;-35.248;149.138;2022-11-02T15:55:09;9.60;90.40
39931;DHT22;26635;-35.248;149.138;2022-11-02T15:58:06;9.60;90.40
39931;DHT22;26635;-35.248;149.138;2022-11-02T16:00:42;9.60;90.20
39931;DHT22;26635;-35.248;149.138;2022-11-02T16:03:15;9.50;90.90
39931;DHT22;26635;-35.248;149.138;2022-11-02T16:05:53;9.50;90.90
39931;DHT22;26635;-35.248;149.138;2022-11-02T16:08:35;9.50;90.50
39931;DHT22;26635;-35.248;149.138;2022-11-02T16:11:12;9.50;90.90
39931;DHT22;26635;-35.248;149.138;2022-11-02T16:13:46;9.50;91.30
39931;DHT22;26635;-35.248;149.138;2022-11-02T16:16:48;9.50;91.00
39931;DHT22;26635;-35.248;149.138;2022-11-02T16:19:20;9.40;91.60
39931;DHT22;26635;-35.248;149.138;2022-11-02T16:21:51;9.40;91.40
39931;DHT22;26635;-35.248;149.138;2022-11-02T16:24:28;9.40;91.30
39931;DHT22;26635;-35.248;149.138;2022-11-02T16:27:00;9.40;91.30
39931;DHT22;26635;-35.248;149.138;2022-11-02T16:29:32;9.40;91.60
39931;DHT22;26635;-35.248;149.138;2022-11-02T16:32:09;9.40;91.40
39931;DHT22;26635;-35.248;149.138;2022-11-02T16:34:39;9.40;91.50
39931;DHT22;26635;-35.248;149.138;2022-11-02T16:37:12;9.30;91.50
39931;DHT22;26635;-35.248;149.138;2022-11-02T16:39:46;9.20;91.80
39931;DHT22;26635;-35.248;149.138;2022-11-02T16:42:22;9.20;91.90
39931;DHT22;26635;-35.248;149.138;2022-11-02T16:44:58;9.20;92.20
39931;DHT22;26635;-35.248;149.138;2022-11-02T16:47:40;9.20;92.10
39931;DHT22;26635;-35.248;149.138;2022-11-02T16:50:25;9.10;92.50
39931;DHT22;26635;-35.248;149.138;2022-11-02T16:52:56;9.00;92.50
39931;DHT22;26635;-35.248;149.138;2022-11-02T16:55:45;9.00;92.70
39931;DHT22;26635;-35.248;149.138;2022-11-02T16:58:21;9.00;92.70
39931;DHT22;26635;-35.248;149.138;2022-11-02T17:00:58;9.00;92.70
39931;DHT22;26635;-35.248;149.138;2022-11-02T17:03:32;9.00;92.90
39931;DHT22;26635;-35.248;149.138;2022-11-02T17:06:05;8.90;92.50
39931;DHT22;26635;-35.248;149.138;2022-11-02T17:08:38;9.00;92.50
39931;DHT22;26635;-35.248;149.138;2022-11-02T17:11:14;8.90;92.20
39931;DHT22;26635;-35.248;149.138;2022-11-02T17:13:55;8.90;92.30
39931;DHT22;26635;-35.248;149.138;2022-11-02T17:16:32;8.80;92.50
39931;DHT22;26635;-35.248;149.138;2022-11-02T17:19:03;8.80;92.30
39931;DHT22;26635;-35.248;149.138;2022-11-02T17:21:37;8.80;92.60
39931;DHT22;26635;-35.248;149.138;2022-11-02T17:24:30;8.80;92.50
39931;DHT22;26635;-35.248;149.138;2022-11-02T17:27:22;8.70;92.60
39931;DHT22;26635;-35.248;149.138;2022-11-02T17:29:54;8.70;93.10
39931;DHT22;26635;-35.248;149.138;2022-11-02T17:32:25;8.70;93.10
39931;DHT22;26635;-35.248;149.138;2022-11-02T17:34:57;8.70;93.70
39931;DHT22;26635;-35.248;149.138;2022-11-02T17:37:30;8.70;93.80
39931;DHT22;26635;-35.248;149.138;2022-11-02T17:40:01;8.60;94.00
39931;DHT22;26635;-35.248;149.138;2022-11-02T17:42:31;8.70;94.30
39931;DHT22;26635;-35.248;149.138;2022-11-02T17:45:32;8.70;94.50
39931;DHT22;26635;-35.248;149.138;2022-11-02T17:48:04;8.70;94.40
39931;DHT22;26635;-35.248;149.138;2022-11-02T17:50:37;8.70;94.20